sensor_id;sensor_type;location;lat;lon;timestamp;P1;durP1;ratioP1;P2;durP2;ratioP2
8297;SDS011;4187;42.778;23.242;2024-01-15T00:00:59;95.00;;;53.77;;
8297;SDS011;4187;42.778;23.242;2024-01-15T00:03:26;79.73;;;44.90;;
8297;SDS011;4187;42.778;23.242;2024-01-15T00:05:53;72.77;;;43.30;;
8297;SDS011;4187;42.778;23.242;2024-01-15T00:08:20;91.07;;;49.33;;
8297;SDS011;4187;42.778;23.242;2024-01-15T00:10:46;80.00;;;43.93;;
8297;SDS011;4187;42.778;23.242;2024-01-15T00:13:13;84.63;;;45.30;;
8297;SDS011;4187;42.778;23.242;2024-01-15T00:15:41;87.20;;;48.43;;
8297;SDS011;4187;42.778;23.242;2024-01-15T00:18:08;84.87;;;48.20;;
8297;SDS011;4187;42.778;23.242;2024-01-15T00:20:35;77.27;;;46.63;;
8297;SDS011;4187;42.778;23.242;2024-01-15T00:23:02;77.60;;;44.70;;
8297;SDS011;4187;42.778;23.242;2024-01-15T00:25:29;89.13;;;45.93;;
8297;SDS011;4187;42.778;23.242;2024-01-15T00:27:56;77.80;;;43.97;;
8297;SDS011;4187;42.778;23.242;2024-01-15T00:30:23;87.83;;;47.97;;
8297;SDS011;4187;42.778;23.242;2024-01-15T00:32:51;82.83;;;46.20;;
8297;SDS011;4187;42.778;23.242;2024-01-15T00:35:18;86.20;;;48.57;;
8297;SDS011;4187;42.778;23.242;2024-01-15T00:37:45;91.93;;;51.37;;
8297;SDS011;4187;42.778;23.242;2024-01-15T00:40:12;116.60;;;60.50;;
8297;SDS011;4187;42.778;23.242;2024-01-15T00:42:38;129.53;;;69.03;;
8297;SDS011;4187;42.778;23.242;2024-01-15T00:45:05;117.00;;;63.70;;
8297;SDS011;4187;42.778;23.242;2024-01-15T00:47:33;109.03;;;60.20;;
8297;SDS011;4187;42.778;23.242;2024-01-15T00:50:02;113.77;;;58.83;;
8297;SDS011;4187;42.778;23.242;2024-01-15T00:52:29;90.03;;;50.03;;
8297;SDS011;4187;42.778;23.242;2024-01-15T00:54:56;92.73;;;47.03;;
8297;SDS011;4187;42.778;23.242;2024-01-15T00:57:22;87.43;;;50.37;;
8297;SDS011;4187;42.778;23.242;2024-01-15T00:59:49;98.07;;;56.10;;
8297;SDS011;4187;42.778;23.242;2024-01-15T01:02:16;99.63;;;54.80;;
8297;SDS011;4187;42.778;23.242;2024-01-15T01:04:43;122.73;;;67.23;;
8297;SDS011;4187;42.778;23.242;2024-01-15T01:07:11;112.00;;;62.40;;
8297;SDS011;4187;42.778;23.242;2024-01-15T01:09:38;112.03;;;57.83;;
8297;SDS011;4187;42.778;23.242;2024-01-15T01:12:05;101.30;;;57.93;;
8297;SDS011;4187;42.778;23.242;2024-01-15T01:14:32;111.00;;;57.70;;
8297;SDS011;4187;42.778;23.242;2024-01-15T01:16:59;105.37;;;57.70;;
8297;SDS011;4187;42.778;23.242;2024-01-15T01:19:25;105.53;;;60.10;;
8297;SDS011;4187;42.778;23.242;2024-01-15T01:21:52;99.13;;;58.70;;
8297;SDS011;4187;42.778;23.242;2024-01-15T01:24:20;89.90;;;49.17;;
8297;SDS011;4187;42.778;23.242;2024-01-15T01:26:47;98.73;;;55.63;;
8297;SDS011;4187;42.778;23.242;2024-01-15T01:29:14;115.13;;;55.47;;
8297;SDS011;4187;42.778;23.242;2024-01-15T01:31:44;93.87;;;52.07;;
8297;SDS011;4187;42.778;23.242;2024-01-15T01:34:13;105.57;;;52.03;;
8297;SDS011;4187;42.778;23.242;2024-01-15T01:36:41;95.90;;;53.87;;
8297;SDS011;4187;42.778;23.242;2024-01-15T01:39:08;97.60;;;55.43;;
8297;SDS011;4187;42.778;23.242;2024-01-15T01:41:37;95.60;;;53.80;;
8297;SDS011;4187;42.778;23.242;2024-01-15T01:44:04;114.57;;;57.80;;
8297;SDS011;4187;42.778;23.242;2024-01-15T01:46:32;110.67;;;59.47;;
8297;SDS011;4187;42.778;23.242;2024-01-15T01:49:00;99.97;;;53.80;;
8297;SDS011;4187;42.778;23.242;2024-01-15T01:51:30;89.03;;;47.30;;
8297;SDS011;4187;42.778;23.242;2024-01-15T01:53:58;104.67;;;52.90;;
8297;SDS011;4187;42.778;23.242;2024-01-15T01:56:24;83.80;;;46.00;;
8297;SDS011;4187;42.778;23.242;2024-01-15T01:58:53;67.63;;;40.73;;
8297;SDS011;4187;42.778;23.242;2024-01-15T02:01:20;71.60;;;37.93;;
8297;SDS011;4187;42.778;23.242;2024-01-15T02:03:47;62.27;;;33.47;;
8297;SDS011;4187;42.778;23.242;2024-01-15T02:06:14;69.97;;;37.20;;
8297;SDS011;4187;42.778;23.242;2024-01-15T02:08:42;71.90;;;37.53;;
8297;SDS011;4187;42.778;23.242;2024-01-15T02:11:10;112.23;;;53.10;;
8297;SDS011;4187;42.778;23.242;2024-01-15T02:13:36;88.87;;;45.10;;
8297;SDS011;4187;42.778;23.242;2024-01-15T02:16:06;58.80;;;31.63;;
8297;SDS011;4187;42.778;23.242;2024-01-15T02:18:39;67.37;;;36.30;;
8297;SDS011;4187;42.778;23.242;2024-01-15T02:21:07;61.57;;;37.23;;
8297;SDS011;4187;42.778;23.242;2024-01-15T02:23:35;71.70;;;39.13;;
8297;SDS011;4187;42.778;23.242;2024-01-15T02:26:02;86.77;;;46.03;;
8297;SDS011;4187;42.778;23.242;2024-01-15T02:28:29;106.40;;;55.37;;
8297;SDS011;4187;42.778;23.242;2024-01-15T02:30:56;97.80;;;55.30;;
8297;SDS011;4187;42.778;23.242;2024-01-15T02:33:23;98.23;;;55.27;;
8297;SDS011;4187;42.778;23.242;2024-01-15T02:35:49;114.23;;;60.80;;
8297;SDS011;4187;42.778;23.242;2024-01-15T02:38:16;101.80;;;56.80;;
8297;SDS011;4187;42.778;23.242;2024-01-15T02:40:44;100.03;;;56.73;;
8297;SDS011;4187;42.778;23.242;2024-01-15T02:43:12;103.27;;;54.70;;
8297;SDS011;4187;42.778;23.242;2024-01-15T02:45:39;100.90;;;55.70;;
8297;SDS011;4187;42.778;23.242;2024-01-15T02:48:06;100.20;;;52.20;;
8297;SDS011;4187;42.778;23.242;2024-01-15T02:50:32;105.20;;;56.47;;
8297;SDS011;4187;42.778;23.242;2024-01-15T02:52:59;103.70;;;56.47;;
8297;SDS011;4187;42.778;23.242;2024-01-15T02:55:26;96.37;;;52.90;;
8297;SDS011;4187;42.778;23.242;2024-01-15T02:57:56;87.10;;;49.43;;
8297;SDS011;4187;42.778;23.242;2024-01-15T03:00:22;85.37;;;49.40;;
8297;SDS011;4187;42.778;23.242;2024-01-15T03:02:50;94.73;;;49.87;;
8297;SDS011;4187;42.778;23.242;2024-01-15T03:05:17;99.77;;;53.40;;
8297;SDS011;4187;42.778;23.242;2024-01-15T03:07:45;100.03;;;53.63;;
8297;SDS011;4187;42.778;23.242;2024-01-15T03:10:11;98.30;;;53.23;;
8297;SDS011;4187;42.778;23.242;2024-01-15T03:12:38;100.73;;;54.47;;
8297;SDS011;4187;42.778;23.242;2024-01-15T03:15:07;101.60;;;55.70;;
8297;SDS011;4187;42.778;23.242;2024-01-15T03:17:34;109.47;;;59.33;;
8297;SDS011;4187;42.778;23.242;2024-01-15T03:20:00;103.83;;;55.33;;
8297;SDS011;4187;42.778;23.242;2024-01-15T03:22:28;102.73;;;58.60;;
8297;SDS011;4187;42.778;23.242;2024-01-15T03:24:55;122.00;;;65.83;;
8297;SDS011;4187;42.778;23.242;2024-01-15T03:27:21;113.07;;;59.20;;
8297;SDS011;4187;42.778;23.242;2024-01-15T03:29:48;110.23;;;59.17;;
8297;SDS011;4187;42.778;23.242;2024-01-15T03:32:16;110.43;;;56.47;;
8297;SDS011;4187;42.778;23.242;2024-01-15T03:34:44;99.60;;;55.30;;
8297;SDS011;4187;42.778;23.242;2024-01-15T03:37:12;101.97;;;57.53;;
8297;SDS011;4187;42.778;23.242;2024-01-15T03:39:39;95.60;;;50.73;;
8297;SDS011;4187;42.778;23.242;2024-01-15T03:42:06;99.03;;;51.20;;
8297;SDS011;4187;42.778;23.242;2024-01-15T03:44:33;103.00;;;53.73;;
8297;SDS011;4187;42.778;23.242;2024-01-15T03:46:59;88.07;;;51.03;;
8297;SDS011;4187;42.778;23.242;2024-01-15T03:49:27;89.03;;;50.43;;
8297;SDS011;4187;42.778;23.242;2024-01-15T03:51:54;84.40;;;48.27;;
8297;SDS011;4187;42.778;23.242;2024-01-15T03:54:21;85.70;;;46.87;;
8297;SDS011;4187;42.778;23.242;2024-01-15T03:56:48;86.77;;;44.03;;
8297;SDS011;4187;42.778;23.242;2024-01-15T03:59:15;82.00;;;42.90;;
8297;SDS011;4187;42.778;23.242;2024-01-15T04:01:44;87.07;;;44.03;;
8297;SDS011;4187;42.778;23.242;2024-01-15T04:04:15;88.10;;;47.47;;
8297;SDS011;4187;42.778;23.242;2024-01-15T04:06:43;84.50;;;46.73;;
8297;SDS011;4187;42.778;23.242;2024-01-15T04:09:09;99.23;;;52.93;;
8297;SDS011;4187;42.778;23.242;2024-01-15T04:11:37;88.67;;;49.80;;
8297;SDS011;4187;42.778;23.242;2024-01-15T04:14:04;97.40;;;53.53;;
8297;SDS011;4187;42.778;23.242;2024-01-15T04:16:31;104.03;;;54.33;;
8297;SDS011;4187;42.778;23.242;2024-01-15T04:18:58;124.77;;;65.73;;
8297;SDS011;4187;42.778;23.242;2024-01-15T04:21:24;117.73;;;58.13;;
8297;SDS011;4187;42.778;23.242;2024-01-15T04:23:53;94.73;;;52.63;;
8297;SDS011;4187;42.778;23.242;2024-01-15T04:26:19;87.57;;;45.53;;
8297;SDS011;4187;42.778;23.242;2024-01-15T04:28:46;74.80;;;40.90;;
8297;SDS011;4187;42.778;23.242;2024-01-15T04:31:20;80.43;;;43.13;;
8297;SDS011;4187;42.778;23.242;2024-01-15T04:33:47;73.83;;;41.43;;
8297;SDS011;4187;42.778;23.242;2024-01-15T04:36:14;83.00;;;41.63;;
8297;SDS011;4187;42.778;23.242;2024-01-15T04:38:41;73.20;;;40.63;;
8297;SDS011;4187;42.778;23.242;2024-01-15T04:41:10;75.17;;;39.53;;
8297;SDS011;4187;42.778;23.242;2024-01-15T04:43:38;68.63;;;39.77;;
8297;SDS011;4187;42.778;23.242;2024-01-15T04:46:05;76.07;;;38.07;;
8297;SDS011;4187;42.778;23.242;2024-01-15T04:48:32;72.33;;;40.30;;
8297;SDS011;4187;42.778;23.242;2024-01-15T04:50:59;69.63;;;40.03;;
8297;SDS011;4187;42.778;23.242;2024-01-15T04:53:26;71.47;;;38.97;;
8297;SDS011;4187;42.778;23.242;2024-01-15T04:55:53;72.80;;;41.67;;
8297;SDS011;4187;42.778;23.242;2024-01-15T04:58:21;71.57;;;41.23;;
8297;SDS011;4187;42.778;23.242;2024-01-15T05:00:50;67.97;;;38.87;;
8297;SDS011;4187;42.778;23.242;2024-01-15T05:03:17;64.70;;;39.47;;
8297;SDS011;4187;42.778;23.242;2024-01-15T05:05:44;67.27;;;38.17;;
8297;SDS011;4187;42.778;23.242;2024-01-15T05:08:10;66.03;;;39.47;;
8297;SDS011;4187;42.778;23.242;2024-01-15T05:10:37;72.53;;;41.90;;
8297;SDS011;4187;42.778;23.242;2024-01-15T05:13:04;64.83;;;37.73;;
8297;SDS011;4187;42.778;23.242;2024-01-15T05:15:32;68.33;;;39.37;;
8297;SDS011;4187;42.778;23.242;2024-01-15T05:17:59;76.30;;;39.13;;
8297;SDS011;4187;42.778;23.242;2024-01-15T05:20:26;66.80;;;41.10;;
8297;SDS011;4187;42.778;23.242;2024-01-15T05:22:52;72.40;;;40.90;;
8297;SDS011;4187;42.778;23.242;2024-01-15T05:25:19;67.60;;;40.67;;
8297;SDS011;4187;42.778;23.242;2024-01-15T05:27:46;79.67;;;43.33;;
8297;SDS011;4187;42.778;23.242;2024-01-15T05:30:13;70.50;;;39.57;;
8297;SDS011;4187;42.778;23.242;2024-01-15T05:32:42;65.13;;;37.93;;
8297;SDS011;4187;42.778;23.242;2024-01-15T05:35:08;109.77;;;52.70;;
8297;SDS011;4187;42.778;23.242;2024-01-15T05:37:35;84.93;;;46.27;;
8297;SDS011;4187;42.778;23.242;2024-01-15T05:40:02;78.93;;;44.87;;
8297;SDS011;4187;42.778;23.242;2024-01-15T05:42:30;75.27;;;43.07;;
8297;SDS011;4187;42.778;23.242;2024-01-15T05:44:57;64.50;;;39.23;;
8297;SDS011;4187;42.778;23.242;2024-01-15T05:47:27;65.47;;;38.80;;
8297;SDS011;4187;42.778;23.242;2024-01-15T05:49:55;69.80;;;40.03;;
8297;SDS011;4187;42.778;23.242;2024-01-15T05:52:22;62.70;;;38.67;;
8297;SDS011;4187;42.778;23.242;2024-01-15T05:54:50;66.07;;;39.10;;
8297;SDS011;4187;42.778;23.242;2024-01-15T05:57:16;69.73;;;40.47;;
8297;SDS011;4187;42.778;23.242;2024-01-15T05:59:44;76.30;;;44.13;;
8297;SDS011;4187;42.778;23.242;2024-01-15T06:02:11;83.67;;;45.37;;
8297;SDS011;4187;42.778;23.242;2024-01-15T06:04:38;67.33;;;39.67;;
8297;SDS011;4187;42.778;23.242;2024-01-15T06:07:06;70.10;;;40.13;;
8297;SDS011;4187;42.778;23.242;2024-01-15T06:09:32;64.40;;;37.67;;
8297;SDS011;4187;42.778;23.242;2024-01-15T06:11:59;58.80;;;35.70;;
8297;SDS011;4187;42.778;23.242;2024-01-15T06:14:26;65.53;;;39.67;;
8297;SDS011;4187;42.778;23.242;2024-01-15T06:16:53;67.97;;;39.10;;
8297;SDS011;4187;42.778;23.242;2024-01-15T06:19:20;64.47;;;36.87;;
8297;SDS011;4187;42.778;23.242;2024-01-15T06:21:46;75.20;;;41.00;;
8297;SDS011;4187;42.778;23.242;2024-01-15T06:24:14;71.37;;;39.23;;
8297;SDS011;4187;42.778;23.242;2024-01-15T06:26:43;60.33;;;36.23;;
8297;SDS011;4187;42.778;23.242;2024-01-15T06:29:10;63.73;;;37.40;;
8297;SDS011;4187;42.778;23.242;2024-01-15T06:31:36;62.30;;;35.97;;
8297;SDS011;4187;42.778;23.242;2024-01-15T06:34:03;59.90;;;39.53;;
8297;SDS011;4187;42.778;23.242;2024-01-15T06:36:30;73.43;;;43.30;;
8297;SDS011;4187;42.778;23.242;2024-01-15T06:38:57;72.37;;;43.23;;
8297;SDS011;4187;42.778;23.242;2024-01-15T06:41:25;59.47;;;38.40;;
8297;SDS011;4187;42.778;23.242;2024-01-15T06:43:52;55.97;;;36.13;;
8297;SDS011;4187;42.778;23.242;2024-01-15T06:46:19;56.87;;;36.80;;
8297;SDS011;4187;42.778;23.242;2024-01-15T06:48:47;59.37;;;38.73;;
8297;SDS011;4187;42.778;23.242;2024-01-15T06:51:14;68.17;;;41.53;;
8297;SDS011;4187;42.778;23.242;2024-01-15T06:53:41;66.80;;;39.57;;
8297;SDS011;4187;42.778;23.242;2024-01-15T06:56:08;61.73;;;36.73;;
8297;SDS011;4187;42.778;23.242;2024-01-15T06:58:37;68.03;;;38.90;;
8297;SDS011;4187;42.778;23.242;2024-01-15T07:01:03;59.57;;;37.37;;
8297;SDS011;4187;42.778;23.242;2024-01-15T07:03:31;62.13;;;39.10;;
8297;SDS011;4187;42.778;23.242;2024-01-15T07:05:58;64.60;;;37.93;;
8297;SDS011;4187;42.778;23.242;2024-01-15T07:08:25;57.40;;;36.57;;
8297;SDS011;4187;42.778;23.242;2024-01-15T07:10:51;60.07;;;36.90;;
8297;SDS011;4187;42.778;23.242;2024-01-15T07:13:18;67.43;;;39.87;;
8297;SDS011;4187;42.778;23.242;2024-01-15T07:15:46;67.17;;;41.07;;
8297;SDS011;4187;42.778;23.242;2024-01-15T07:18:13;67.50;;;41.13;;
8297;SDS011;4187;42.778;23.242;2024-01-15T07:20:40;59.93;;;38.77;;
8297;SDS011;4187;42.778;23.242;2024-01-15T07:23:07;64.00;;;40.10;;
8297;SDS011;4187;42.778;23.242;2024-01-15T07:25:34;53.83;;;35.27;;
8297;SDS011;4187;42.778;23.242;2024-01-15T07:28:01;62.27;;;38.37;;
8297;SDS011;4187;42.778;23.242;2024-01-15T07:30:28;62.40;;;37.70;;
8297;SDS011;4187;42.778;23.242;2024-01-15T07:32:57;55.07;;;36.10;;
8297;SDS011;4187;42.778;23.242;2024-01-15T07:35:23;60.97;;;37.70;;
8297;SDS011;4187;42.778;23.242;2024-01-15T07:37:50;53.00;;;35.83;;
8297;SDS011;4187;42.778;23.242;2024-01-15T07:40:17;53.93;;;36.13;;
8297;SDS011;4187;42.778;23.242;2024-01-15T07:42:44;60.07;;;37.33;;
8297;SDS011;4187;42.778;23.242;2024-01-15T07:45:11;54.47;;;35.13;;
8297;SDS011;4187;42.778;23.242;2024-01-15T07:47:38;58.20;;;34.77;;
8297;SDS011;4187;42.778;23.242;2024-01-15T07:50:06;60.33;;;34.87;;
8297;SDS011;4187;42.778;23.242;2024-01-15T07:52:33;53.97;;;35.47;;
8297;SDS011;4187;42.778;23.242;2024-01-15T07:55:00;60.90;;;38.10;;
8297;SDS011;4187;42.778;23.242;2024-01-15T07:57:30;60.97;;;37.80;;
8297;SDS011;4187;42.778;23.242;2024-01-15T07:59:57;64.27;;;42.40;;
8297;SDS011;4187;42.778;23.242;2024-01-15T08:02:24;89.30;;;56.33;;
8297;SDS011;4187;42.778;23.242;2024-01-15T08:04:50;83.80;;;52.40;;
8297;SDS011;4187;42.778;23.242;2024-01-15T08:07:19;81.53;;;48.00;;
8297;SDS011;4187;42.778;23.242;2024-01-15T08:09:47;78.37;;;49.10;;
8297;SDS011;4187;42.778;23.242;2024-01-15T08:12:14;90.57;;;56.23;;
8297;SDS011;4187;42.778;23.242;2024-01-15T08:14:41;102.87;;;60.40;;
8297;SDS011;4187;42.778;23.242;2024-01-15T08:17:08;112.73;;;65.73;;
8297;SDS011;4187;42.778;23.242;2024-01-15T08:19:35;100.00;;;61.90;;
8297;SDS011;4187;42.778;23.242;2024-01-15T08:22:02;94.77;;;56.60;;
8297;SDS011;4187;42.778;23.242;2024-01-15T08:24:30;92.87;;;54.97;;
8297;SDS011;4187;42.778;23.242;2024-01-15T08:26:57;98.47;;;54.27;;
8297;SDS011;4187;42.778;23.242;2024-01-15T08:29:24;85.77;;;51.43;;
8297;SDS011;4187;42.778;23.242;2024-01-15T08:31:51;83.30;;;50.40;;
8297;SDS011;4187;42.778;23.242;2024-01-15T08:34:18;99.53;;;59.83;;
8297;SDS011;4187;42.778;23.242;2024-01-15T08:36:45;88.20;;;52.50;;
8297;SDS011;4187;42.778;23.242;2024-01-15T08:39:12;88.63;;;53.83;;
8297;SDS011;4187;42.778;23.242;2024-01-15T08:41:40;83.27;;;54.43;;
8297;SDS011;4187;42.778;23.242;2024-01-15T08:44:07;86.40;;;54.90;;
8297;SDS011;4187;42.778;23.242;2024-01-15T08:46:34;83.13;;;51.60;;
8297;SDS011;4187;42.778;23.242;2024-01-15T08:49:00;50.63;;;35.63;;
8297;SDS011;4187;42.778;23.242;2024-01-15T08:51:28;52.70;;;32.57;;
8297;SDS011;4187;42.778;23.242;2024-01-15T08:53:55;59.57;;;36.40;;
8297;SDS011;4187;42.778;23.242;2024-01-15T08:56:22;62.07;;;40.87;;
8297;SDS011;4187;42.778;23.242;2024-01-15T08:58:51;64.37;;;39.47;;
8297;SDS011;4187;42.778;23.242;2024-01-15T09:01:17;65.47;;;42.53;;
8297;SDS011;4187;42.778;23.242;2024-01-15T09:03:44;86.37;;;50.30;;
8297;SDS011;4187;42.778;23.242;2024-01-15T09:06:13;77.70;;;47.03;;
8297;SDS011;4187;42.778;23.242;2024-01-15T09:08:40;68.87;;;43.27;;
8297;SDS011;4187;42.778;23.242;2024-01-15T09:11:07;70.20;;;42.20;;
8297;SDS011;4187;42.778;23.242;2024-01-15T09:13:33;64.17;;;40.13;;
8297;SDS011;4187;42.778;23.242;2024-01-15T09:16:02;60.13;;;36.97;;
8297;SDS011;4187;42.778;23.242;2024-01-15T09:18:29;55.30;;;33.20;;
8297;SDS011;4187;42.778;23.242;2024-01-15T09:20:55;43.40;;;31.10;;
8297;SDS011;4187;42.778;23.242;2024-01-15T09:23:22;53.07;;;34.77;;
8297;SDS011;4187;42.778;23.242;2024-01-15T09:25:49;60.57;;;38.03;;
8297;SDS011;4187;42.778;23.242;2024-01-15T09:28:17;53.73;;;33.03;;
8297;SDS011;4187;42.778;23.242;2024-01-15T09:30:44;50.53;;;33.23;;
8297;SDS011;4187;42.778;23.242;2024-01-15T09:33:13;53.23;;;32.90;;
8297;SDS011;4187;42.778;23.242;2024-01-15T09:35:40;41.30;;;27.83;;
8297;SDS011;4187;42.778;23.242;2024-01-15T09:38:07;47.80;;;31.53;;
8297;SDS011;4187;42.778;23.242;2024-01-15T09:40:34;51.63;;;36.03;;
8297;SDS011;4187;42.778;23.242;2024-01-15T09:43:05;56.20;;;35.00;;
8297;SDS011;4187;42.778;23.242;2024-01-15T09:45:32;51.03;;;34.40;;
8297;SDS011;4187;42.778;23.242;2024-01-15T09:47:59;43.83;;;32.23;;
8297;SDS011;4187;42.778;23.242;2024-01-15T09:50:27;47.37;;;30.53;;
8297;SDS011;4187;42.778;23.242;2024-01-15T09:52:54;41.87;;;30.20;;
8297;SDS011;4187;42.778;23.242;2024-01-15T09:55:22;45.97;;;30.73;;
8297;SDS011;4187;42.778;23.242;2024-01-15T09:57:49;41.27;;;28.53;;
8297;SDS011;4187;42.778;23.242;2024-01-15T10:00:17;39.43;;;30.00;;
8297;SDS011;4187;42.778;23.242;2024-01-15T10:02:44;41.17;;;28.23;;
8297;SDS011;4187;42.778;23.242;2024-01-15T10:05:11;39.60;;;29.77;;
8297;SDS011;4187;42.778;23.242;2024-01-15T10:07:39;32.50;;;24.52;;
8297;SDS011;4187;42.778;23.242;2024-01-15T10:10:06;28.73;;;22.10;;
8297;SDS011;4187;42.778;23.242;2024-01-15T10:12:34;36.42;;;23.83;;
8297;SDS011;4187;42.778;23.242;2024-01-15T10:15:02;24.85;;;16.88;;
8297;SDS011;4187;42.778;23.242;2024-01-15T10:17:29;22.77;;;17.25;;
8297;SDS011;4187;42.778;23.242;2024-01-15T10:19:56;29.70;;;20.38;;
8297;SDS011;4187;42.778;23.242;2024-01-15T10:22:23;28.75;;;20.73;;
8297;SDS011;4187;42.778;23.242;2024-01-15T10:24:51;29.80;;;20.25;;
8297;SDS011;4187;42.778;23.242;2024-01-15T10:27:18;27.52;;;21.02;;
8297;SDS011;4187;42.778;23.242;2024-01-15T10:29:44;24.13;;;18.63;;
8297;SDS011;4187;42.778;23.242;2024-01-15T10:32:11;24.17;;;17.75;;
8297;SDS011;4187;42.778;23.242;2024-01-15T10:34:38;29.77;;;21.63;;
8297;SDS011;4187;42.778;23.242;2024-01-15T10:37:07;25.85;;;19.55;;
8297;SDS011;4187;42.778;23.242;2024-01-15T10:39:34;21.38;;;16.48;;
8297;SDS011;4187;42.778;23.242;2024-01-15T10:42:03;25.33;;;19.50;;
8297;SDS011;4187;42.778;23.242;2024-01-15T10:44:31;30.95;;;21.33;;
8297;SDS011;4187;42.778;23.242;2024-01-15T10:46:58;27.75;;;17.38;;
8297;SDS011;4187;42.778;23.242;2024-01-15T10:49:25;21.25;;;16.85;;
8297;SDS011;4187;42.778;23.242;2024-01-15T10:51:54;27.50;;;19.35;;
8297;SDS011;4187;42.778;23.242;2024-01-15T10:54:21;26.75;;;21.83;;
8297;SDS011;4187;42.778;23.242;2024-01-15T10:56:49;28.40;;;20.30;;
8297;SDS011;4187;42.778;23.242;2024-01-15T10:59:19;28.92;;;19.90;;
8297;SDS011;4187;42.778;23.242;2024-01-15T11:01:46;23.23;;;17.77;;
8297;SDS011;4187;42.778;23.242;2024-01-15T11:04:14;23.02;;;16.50;;
8297;SDS011;4187;42.778;23.242;2024-01-15T11:06:42;25.27;;;18.98;;
8297;SDS011;4187;42.778;23.242;2024-01-15T11:09:11;24.98;;;17.88;;
8297;SDS011;4187;42.778;23.242;2024-01-15T11:11:40;51.60;;;31.80;;
8297;SDS011;4187;42.778;23.242;2024-01-15T11:14:08;26.55;;;18.65;;
8297;SDS011;4187;42.778;23.242;2024-01-15T11:16:54;30.95;;;21.95;;
8297;SDS011;4187;42.778;23.242;2024-01-15T11:19:24;41.38;;;29.50;;
8297;SDS011;4187;42.778;23.242;2024-01-15T11:21:51;20.85;;;16.95;;
8297;SDS011;4187;42.778;23.242;2024-01-15T11:24:34;19.95;;;14.02;;
8297;SDS011;4187;42.778;23.242;2024-01-15T11:27:04;40.92;;;27.05;;
8297;SDS011;4187;42.778;23.242;2024-01-15T11:29:33;23.83;;;16.90;;
8297;SDS011;4187;42.778;23.242;2024-01-15T11:32:03;20.25;;;15.95;;
8297;SDS011;4187;42.778;23.242;2024-01-15T11:37:17;19.08;;;14.70;;
8297;SDS011;4187;42.778;23.242;2024-01-15T11:39:44;24.33;;;18.48;;
8297;SDS011;4187;42.778;23.242;2024-01-15T11:42:12;21.13;;;15.38;;
8297;SDS011;4187;42.778;23.242;2024-01-15T11:44:40;19.50;;;15.00;;
8297;SDS011;4187;42.778;23.242;2024-01-15T11:47:09;21.67;;;14.95;;
8297;SDS011;4187;42.778;23.242;2024-01-15T11:49:51;46.97;;;28.30;;
8297;SDS011;4187;42.778;23.242;2024-01-15T11:52:26;24.30;;;16.98;;
8297;SDS011;4187;42.778;23.242;2024-01-15T11:54:55;22.27;;;16.45;;
8297;SDS011;4187;42.778;23.242;2024-01-15T11:57:31;39.15;;;22.25;;
8297;SDS011;4187;42.778;23.242;2024-01-15T12:00:03;31.20;;;19.88;;
8297;SDS011;4187;42.778;23.242;2024-01-15T12:02:33;46.25;;;24.88;;
8297;SDS011;4187;42.778;23.242;2024-01-15T12:05:00;29.75;;;18.90;;
8297;SDS011;4187;42.778;23.242;2024-01-15T12:07:28;38.70;;;20.88;;
8297;SDS011;4187;42.778;23.242;2024-01-15T12:09:54;26.83;;;18.30;;
8297;SDS011;4187;42.778;23.242;2024-01-15T12:12:23;32.15;;;20.15;;
8297;SDS011;4187;42.778;23.242;2024-01-15T12:14:54;25.98;;;18.00;;
8297;SDS011;4187;42.778;23.242;2024-01-15T12:17:21;46.55;;;27.23;;
8297;SDS011;4187;42.778;23.242;2024-01-15T12:19:49;25.52;;;19.40;;
8297;SDS011;4187;42.778;23.242;2024-01-15T12:22:16;31.25;;;20.50;;
8297;SDS011;4187;42.778;23.242;2024-01-15T12:24:43;27.00;;;18.70;;
8297;SDS011;4187;42.778;23.242;2024-01-15T12:27:10;31.05;;;19.75;;
8297;SDS011;4187;42.778;23.242;2024-01-15T12:29:37;41.70;;;25.15;;
8297;SDS011;4187;42.778;23.242;2024-01-15T12:32:04;38.20;;;23.13;;
8297;SDS011;4187;42.778;23.242;2024-01-15T12:34:33;31.33;;;20.13;;
8297;SDS011;4187;42.778;23.242;2024-01-15T12:37:04;51.70;;;35.25;;
8297;SDS011;4187;42.778;23.242;2024-01-15T12:39:30;58.92;;;40.70;;
8297;SDS011;4187;42.778;23.242;2024-01-15T12:41:58;32.97;;;22.75;;
8297;SDS011;4187;42.778;23.242;2024-01-15T12:44:25;39.67;;;23.30;;
8297;SDS011;4187;42.778;23.242;2024-01-15T12:46:52;28.35;;;20.90;;
8297;SDS011;4187;42.778;23.242;2024-01-15T12:49:19;35.03;;;24.20;;
8297;SDS011;4187;42.778;23.242;2024-01-15T12:51:51;29.10;;;21.17;;
8297;SDS011;4187;42.778;23.242;2024-01-15T12:54:20;36.67;;;23.13;;
8297;SDS011;4187;42.778;23.242;2024-01-15T12:56:47;33.92;;;25.45;;
8297;SDS011;4187;42.778;23.242;2024-01-15T12:59:14;40.47;;;29.52;;
8297;SDS011;4187;42.778;23.242;2024-01-15T13:01:40;42.53;;;25.63;;
8297;SDS011;4187;42.778;23.242;2024-01-15T13:04:07;53.47;;;29.08;;
8297;SDS011;4187;42.778;23.242;2024-01-15T13:06:34;46.83;;;27.83;;
8297;SDS011;4187;42.778;23.242;2024-01-15T13:09:02;50.35;;;29.45;;
8297;SDS011;4187;42.778;23.242;2024-01-15T13:11:31;51.95;;;28.05;;
8297;SDS011;4187;42.778;23.242;2024-01-15T13:13:58;45.95;;;27.63;;
8297;SDS011;4187;42.778;23.242;2024-01-15T13:16:26;44.85;;;29.27;;
8297;SDS011;4187;42.778;23.242;2024-01-15T13:18:54;35.70;;;23.17;;
8297;SDS011;4187;42.778;23.242;2024-01-15T13:21:24;26.52;;;18.25;;
8297;SDS011;4187;42.778;23.242;2024-01-15T13:23:50;30.85;;;20.05;;
8297;SDS011;4187;42.778;23.242;2024-01-15T13:26:17;23.90;;;17.30;;
8297;SDS011;4187;42.778;23.242;2024-01-15T13:28:46;26.13;;;19.87;;
8297;SDS011;4187;42.778;23.242;2024-01-15T13:31:14;18.15;;;12.80;;
8297;SDS011;4187;42.778;23.242;2024-01-15T13:33:40;18.30;;;13.00;;
8297;SDS011;4187;42.778;23.242;2024-01-15T13:36:07;21.83;;;14.90;;
8297;SDS011;4187;42.778;23.242;2024-01-15T13:38:35;36.97;;;23.97;;
8297;SDS011;4187;42.778;23.242;2024-01-15T13:41:03;49.45;;;30.85;;
8297;SDS011;4187;42.778;23.242;2024-01-15T13:43:31;22.98;;;16.42;;
8297;SDS011;4187;42.778;23.242;2024-01-15T13:46:01;21.70;;;16.67;;
8297;SDS011;4187;42.778;23.242;2024-01-15T13:48:29;31.02;;;18.88;;
8297;SDS011;4187;42.778;23.242;2024-01-15T13:50:57;22.73;;;16.80;;
8297;SDS011;4187;42.778;23.242;2024-01-15T13:53:24;36.53;;;22.97;;
8297;SDS011;4187;42.778;23.242;2024-01-15T13:55:52;116.63;;;75.47;;
8297;SDS011;4187;42.778;23.242;2024-01-15T13:58:18;78.25;;;43.70;;
8297;SDS011;4187;42.778;23.242;2024-01-15T14:00:46;71.83;;;40.93;;
8297;SDS011;4187;42.778;23.242;2024-01-15T14:03:15;72.83;;;43.13;;
8297;SDS011;4187;42.778;23.242;2024-01-15T14:05:42;81.33;;;44.30;;
8297;SDS011;4187;42.778;23.242;2024-01-15T14:08:09;81.10;;;45.43;;
8297;SDS011;4187;42.778;23.242;2024-01-15T14:10:37;84.93;;;42.37;;
8297;SDS011;4187;42.778;23.242;2024-01-15T14:13:03;68.50;;;41.30;;
8297;SDS011;4187;42.778;23.242;2024-01-15T14:15:30;105.97;;;53.97;;
8297;SDS011;4187;42.778;23.242;2024-01-15T14:17:57;101.57;;;53.10;;
8297;SDS011;4187;42.778;23.242;2024-01-15T14:20:26;91.85;;;52.95;;
8297;SDS011;4187;42.778;23.242;2024-01-15T14:22:53;170.77;;;93.65;;
8297;SDS011;4187;42.778;23.242;2024-01-15T14:25:20;171.83;;;101.63;;
8297;SDS011;4187;42.778;23.242;2024-01-15T14:27:47;163.23;;;91.30;;
8297;SDS011;4187;42.778;23.242;2024-01-15T14:30:14;199.95;;;110.28;;
8297;SDS011;4187;42.778;23.242;2024-01-15T14:32:42;195.73;;;108.47;;
8297;SDS011;4187;42.778;23.242;2024-01-15T14:35:09;83.83;;;51.60;;
8297;SDS011;4187;42.778;23.242;2024-01-15T14:37:38;165.97;;;85.43;;